createdAt,value
2023-02-04T00:00:23.226Z,78.20
2023-02-04T00:01:24.856Z,77.94
2023-02-04T00:02:26.552Z,77.85
2023-02-04T00:03:28.179Z,78.73
2023-02-04T00:04:29.777Z,79.37
2023-02-04T00:05:31.351Z,79.47
2023-02-04T00:06:32.927Z,79.16
2023-02-04T00:07:34.781Z,78.88
2023-02-04T00:08:37.628Z,78.38
2023-02-04T00:09:39.240Z,78.57
2023-02-04T00:10:40.852Z,78.42
2023-02-04T00:11:42.610Z,79.16
2023-02-04T00:12:44.194Z,79.48
2023-02-04T00:13:45.749Z,79.61
2023-02-04T00:14:47.313Z,79.81
2023-02-04T00:15:48.914Z,79.98
2023-02-04T00:16:50.527Z,80.68
2023-02-04T00:17:52.228Z,81.19
2023-02-04T00:18:53.756Z,81.74
2023-02-04T00:19:55.373Z,81.61
2023-02-04T00:20:56.921Z,81.62
2023-02-04T00:21:58.448Z,81.44
2023-02-04T00:23:00.016Z,81.54
2023-02-04T00:24:01.580Z,82.22
2023-02-04T00:25:03.223Z,82.73
2023-02-04T00:26:05.081Z,82.84
2023-02-04T00:27:07.575Z,83.60
2023-02-04T00:28:09.184Z,83.70
2023-02-04T00:29:10.774Z,83.59
2023-02-04T00:30:13.088Z,83.96
2023-02-04T00:31:14.662Z,84.24
2023-02-04T00:32:16.410Z,84.72
2023-02-04T00:33:17.992Z,84.53
2023-02-04T00:34:19.618Z,84.67
2023-02-04T00:35:21.562Z,84.47
2023-02-04T00:36:23.117Z,84.73
2023-02-04T00:37:24.941Z,84.21
2023-02-04T00:38:26.463Z,84.08
2023-02-04T00:39:28.043Z,83.60
2023-02-04T00:40:29.852Z,83.72
2023-02-04T00:41:31.569Z,83.94
2023-02-04T00:42:33.116Z,83.43
2023-02-04T00:43:34.671Z,83.15
2023-02-04T00:44:37.103Z,82.32
2023-02-04T00:45:38.694Z,82.62
2023-02-04T00:46:41.665Z,82.44
2023-02-04T00:47:43.181Z,82.87
2023-02-04T00:48:44.720Z,82.21
2023-02-04T00:49:46.282Z,82.31
2023-02-04T00:50:47.863Z,82.01
2023-02-04T00:51:49.562Z,82.35
2023-02-04T00:52:51.208Z,81.69
2023-02-04T00:53:52.788Z,82.43
2023-02-04T00:54:54.362Z,82.37
2023-02-04T00:55:55.901Z,82.50
2023-02-04T00:56:57.473Z,82.53
2023-02-04T00:57:59.085Z,82.00
2023-02-04T00:59:00.697Z,81.70
2023-02-04T01:00:02.424Z,80.73
2023-02-04T01:01:04.124Z,81.94
2023-02-04T01:02:05.791Z,81.27
2023-02-04T01:03:07.820Z,81.70
2023-02-04T01:04:09.572Z,81.56
2023-02-04T01:05:11.115Z,82.30
2023-02-04T01:06:12.683Z,82.16
2023-02-04T01:07:14.402Z,82.03
2023-02-04T01:08:16.002Z,82.47
2023-02-04T01:09:17.552Z,83.09
2023-02-04T01:10:19.127Z,84.11
2023-02-04T01:11:20.809Z,84.99
2023-02-04T01:12:23.016Z,85.50
2023-02-04T01:13:24.828Z,85.04
2023-02-04T01:14:26.407Z,85.39
2023-02-04T01:15:28.015Z,85.19
2023-02-04T01:16:29.616Z,85.17
2023-02-04T01:17:31.218Z,86.30
2023-02-04T01:18:32.778Z,86.91
2023-02-04T01:19:34.364Z,87.18
2023-02-04T01:20:35.946Z,88.01
2023-02-04T01:21:40.213Z,88.55
2023-02-04T01:22:42.503Z,89.08
2023-02-04T01:23:44.099Z,89.38
2023-02-04T01:24:45.678Z,90.22
2023-02-04T01:25:47.247Z,90.52
2023-02-04T01:26:48.850Z,90.33
2023-02-04T01:27:50.418Z,90.86
2023-02-04T01:28:51.973Z,91.12
2023-02-04T01:29:53.542Z,91.93
2023-02-04T01:30:55.201Z,92.22
2023-02-04T01:31:57.024Z,92.70
2023-02-04T01:32:58.627Z,92.85
2023-02-04T01:34:01.359Z,93.80
2023-02-04T01:35:03.455Z,94.22
2023-02-04T01:36:05.269Z,94.53
2023-02-04T01:37:06.893Z,94.66
2023-02-04T01:38:08.465Z,94.76
2023-02-04T01:39:10.006Z,94.88
2023-02-04T01:40:12.195Z,95.21
2023-02-04T01:41:14.831Z,95.15
2023-02-04T01:42:16.452Z,95.07
2023-02-04T01:43:18.521Z,94.60
2023-02-04T01:44:20.119Z,94.11
2023-02-04T01:45:21.684Z,93.48
2023-02-04T01:46:23.372Z,93.39
2023-02-04T01:47:25.589Z,92.80
2023-02-04T01:48:27.194Z,92.08
2023-02-04T01:49:29.269Z,91.70
2023-02-04T01:50:31.618Z,91.54
2023-02-04T01:51:34.132Z,91.55
2023-02-04T01:52:38.633Z,91.58
2023-02-04T01:53:40.757Z,91.48
2023-02-04T01:54:42.426Z,90.59
2023-02-04T01:55:43.980Z,90.83
2023-02-04T01:56:47.856Z,89.89
2023-02-04T01:57:52.918Z,89.74
2023-02-04T01:58:56.498Z,88.89
2023-02-04T01:59:58.210Z,88.35
2023-02-04T02:00:59.831Z,87.97
2023-02-04T02:02:01.428Z,87.09
2023-02-04T02:03:04.336Z,87.16
2023-02-04T02:04:06.006Z,85.99
2023-02-04T02:05:16.845Z,85.41
2023-02-04T02:06:18.427Z,85.80
2023-02-04T02:07:20.008Z,85.65
2023-02-04T02:08:21.593Z,85.28
2023-02-04T02:09:23.785Z,85.44
2023-02-04T02:10:25.618Z,85.28
2023-02-04T02:11:28.031Z,86.30
2023-02-04T02:12:29.658Z,85.81
2023-02-04T02:13:31.271Z,86.69
2023-02-04T02:14:33.496Z,86.73
2023-02-04T02:15:35.065Z,87.96
2023-02-04T02:16:36.799Z,88.36
2023-02-04T02:17:39.556Z,88.48
2023-02-04T02:18:41.083Z,88.62
2023-02-04T02:19:43.667Z,89.25
2023-02-04T02:20:45.449Z,89.77
2023-02-04T02:22:39.597Z,89.82
2023-02-04T02:23:46.889Z,89.54
2023-02-04T02:24:48.420Z,89.79
2023-02-04T02:25:50.901Z,90.16
2023-02-04T02:26:53.694Z,89.97
2023-02-04T02:27:57.154Z,91.33
2023-02-04T02:28:58.686Z,90.53
2023-02-04T02:30:00.256Z,90.78
2023-02-04T02:31:01.873Z,90.32
2023-02-04T02:32:03.639Z,90.20
2023-02-04T02:33:06.366Z,90.35
2023-02-04T02:34:07.903Z,89.59
2023-02-04T02:35:09.574Z,88.96
2023-02-04T02:36:11.390Z,88.68
2023-02-04T02:37:14.023Z,88.46
2023-02-04T02:38:17.127Z,88.45
2023-02-04T02:39:19.154Z,88.32
2023-02-04T02:40:20.846Z,88.82
2023-02-04T02:41:22.398Z,88.60
2023-02-04T02:42:24.447Z,89.05
2023-02-04T02:43:28.520Z,88.60
2023-02-04T02:44:31.709Z,88.17
2023-02-04T02:45:34.748Z,87.61
2023-02-04T02:46:36.432Z,87.98
2023-02-04T02:47:38.024Z,87.58
2023-02-04T02:48:39.591Z,86.41
2023-02-04T02:49:42.120Z,86.63
2023-02-04T02:50:44.939Z,86.59
2023-02-04T02:51:48.230Z,86.98
2023-02-04T02:52:49.819Z,87.94
2023-02-04T02:53:51.435Z,90.08
2023-02-04T02:54:53.833Z,92.15
2023-02-04T02:55:55.510Z,93.60
2023-02-04T02:56:58.569Z,94.15
2023-02-04T02:58:01.040Z,93.82
2023-02-04T02:59:16.437Z,94.64
2023-02-04T03:00:24.088Z,93.95
2023-02-04T03:01:27.335Z,94.49
2023-02-04T03:02:28.959Z,95.09
2023-02-04T03:03:33.925Z,95.29
2023-02-04T03:04:40.696Z,95.59
2023-02-04T03:05:44.812Z,96.51
2023-02-04T03:06:46.766Z,96.03
2023-02-04T03:07:48.821Z,96.27
2023-02-04T03:08:55.198Z,95.87
2023-02-04T03:09:56.776Z,96.27
2023-02-04T03:10:58.377Z,96.43
2023-02-04T03:11:59.990Z,96.34
2023-02-04T03:13:02.582Z,96.13
2023-02-04T03:14:04.968Z,96.39
2023-02-04T03:15:07.341Z,95.73
2023-02-04T03:16:09.179Z,95.44
2023-02-04T03:17:11.924Z,95.65
2023-02-04T03:18:16.180Z,95.59
2023-02-04T03:19:17.771Z,95.87
2023-02-04T03:20:19.375Z,96.22
2023-02-04T03:21:20.920Z,96.63
2023-02-04T03:22:22.554Z,96.96
2023-02-04T03:23:24.748Z,97.46
2023-02-04T03:24:26.617Z,97.64
2023-02-04T03:25:28.857Z,97.57
2023-02-04T03:26:30.560Z,98.07
2023-02-04T03:27:32.765Z,98.32
2023-02-04T03:28:34.491Z,98.64
2023-02-04T03:29:43.269Z,98.87
2023-02-04T03:30:45.022Z,98.96
2023-02-04T03:31:46.753Z,98.90
2023-02-04T03:32:48.584Z,99.17
2023-02-04T03:33:50.104Z,99.46
2023-02-04T03:34:51.658Z,99.85
2023-02-04T03:35:53.300Z,100.00
2023-02-04T03:36:54.901Z,100.00
2023-02-04T03:37:56.481Z,100.00
2023-02-04T03:38:58.214Z,100.00
2023-02-04T03:39:59.764Z,99.35
2023-02-04T03:41:01.960Z,98.72
2023-02-04T03:42:03.603Z,99.19
2023-02-04T03:43:05.116Z,98.50
2023-02-04T03:44:06.629Z,98.11
2023-02-04T03:45:08.749Z,98.24
2023-02-04T03:46:10.371Z,97.77
2023-02-04T03:47:12.034Z,97.50
2023-02-04T03:48:13.841Z,97.51
2023-02-04T03:49:15.391Z,97.10
2023-02-04T03:50:17.055Z,97.13
2023-02-04T03:51:18.567Z,97.33
2023-02-04T03:52:20.434Z,97.14
2023-02-04T03:53:22.213Z,96.73
2023-02-04T03:54:24.492Z,96.96
2023-02-04T03:55:26.432Z,97.06
2023-02-04T03:56:28.091Z,97.79
2023-02-04T03:57:29.647Z,97.76
2023-02-04T03:58:31.194Z,97.46
2023-02-04T03:59:33.015Z,97.64
2023-02-04T04:00:34.529Z,98.37
2023-02-04T04:01:36.119Z,98.50
2023-02-04T04:02:37.767Z,98.50
2023-02-04T04:03:39.349Z,99.30
2023-02-04T04:04:40.903Z,99.36
2023-02-04T04:05:42.499Z,99.23
2023-02-04T04:06:44.161Z,99.29
2023-02-04T04:07:45.802Z,99.38
2023-02-04T04:08:47.596Z,99.03
2023-02-04T04:09:49.158Z,99.11
2023-02-04T04:10:50.710Z,98.92
2023-02-04T04:11:52.279Z,98.92
2023-02-04T04:12:54.159Z,98.61
2023-02-04T04:13:55.713Z,98.59
2023-02-04T04:14:57.232Z,98.94
2023-02-04T04:15:58.899Z,98.82
2023-02-04T04:17:00.521Z,98.39
2023-02-04T04:18:04.503Z,97.49
2023-02-04T04:19:06.039Z,97.51
2023-02-04T04:20:08.162Z,96.84
2023-02-04T04:21:09.674Z,96.70
2023-02-04T04:22:11.924Z,96.74
2023-02-04T04:23:13.430Z,96.80
2023-02-04T04:24:18.149Z,96.90
2023-02-04T04:25:19.779Z,97.16
2023-02-04T04:26:21.521Z,97.16
2023-02-04T04:27:23.201Z,97.07
2023-02-04T04:28:24.864Z,97.04
2023-02-04T04:29:26.442Z,96.19
2023-02-04T04:30:28.096Z,96.43
2023-02-04T04:31:29.728Z,96.35
2023-02-04T04:32:31.521Z,96.49
2023-02-04T04:33:33.112Z,96.41
2023-02-04T04:34:34.664Z,96.99
2023-02-04T04:35:36.355Z,97.80
2023-02-04T04:36:37.983Z,97.83
2023-02-04T04:37:39.558Z,98.16
2023-02-04T04:38:41.141Z,98.61
2023-02-04T04:39:42.832Z,98.65
2023-02-04T04:40:44.454Z,99.06
2023-02-04T04:41:46.055Z,99.30
2023-02-04T04:42:47.650Z,99.68
2023-02-04T04:43:49.204Z,100.00
2023-02-04T04:44:50.842Z,100.00
2023-02-04T04:45:52.554Z,100.00
2023-02-04T04:46:54.133Z,100.00
2023-02-04T04:47:55.742Z,100.00
2023-02-04T04:48:57.420Z,100.00
2023-02-04T04:49:58.970Z,100.00
2023-02-04T04:51:00.524Z,100.00
2023-02-04T04:52:02.087Z,100.00
2023-02-04T04:53:03.763Z,100.00
2023-02-04T04:54:05.298Z,100.00
2023-02-04T04:55:08.477Z,100.00
2023-02-04T04:56:10.132Z,100.00
2023-02-04T04:57:11.698Z,100.00
2023-02-04T04:58:13.441Z,100.00
2023-02-04T04:59:15.007Z,100.00
2023-02-04T05:00:19.439Z,100.00
2023-02-04T05:01:22.762Z,100.00
2023-02-04T05:02:24.534Z,99.26
2023-02-04T05:03:26.137Z,98.43
2023-02-04T05:04:27.771Z,98.12
2023-02-04T05:05:29.410Z,97.66
2023-02-04T05:06:31.041Z,97.67
2023-02-04T05:07:32.636Z,97.28
2023-02-04T05:08:35.834Z,95.83
2023-02-04T05:09:37.417Z,95.53
2023-02-04T05:10:40.689Z,94.99
2023-02-04T05:11:42.345Z,94.41
2023-02-04T05:12:43.899Z,94.32
2023-02-04T05:13:45.610Z,94.19
2023-02-04T05:14:47.137Z,93.00
2023-02-04T05:15:48.710Z,92.57
2023-02-04T05:16:50.238Z,92.30
2023-02-04T05:17:52.690Z,91.70
2023-02-04T05:18:54.198Z,91.03
2023-02-04T05:19:55.698Z,90.95
2023-02-04T05:20:57.261Z,89.09
2023-02-04T05:22:01.633Z,89.07
2023-02-04T05:23:05.514Z,89.21
2023-02-04T05:24:07.346Z,89.48
2023-02-04T05:25:09.096Z,89.78
2023-02-04T05:26:13.639Z,89.72
2023-02-04T05:27:16.805Z,90.48
2023-02-04T05:28:18.478Z,91.01
2023-02-04T05:29:20.049Z,91.50
2023-02-04T05:30:21.668Z,91.49
2023-02-04T05:31:23.414Z,91.52
2023-02-04T05:32:24.964Z,91.59
2023-02-04T05:33:27.174Z,91.87
2023-02-04T05:34:28.747Z,91.60
2023-02-04T05:35:30.280Z,92.44
2023-02-04T05:36:31.834Z,92.32
2023-02-04T05:37:33.616Z,92.12
2023-02-04T05:38:35.324Z,91.83
2023-02-04T05:39:36.878Z,91.60
2023-02-04T05:40:38.447Z,92.13
2023-02-04T05:41:40.180Z,91.56
2023-02-04T05:42:41.969Z,91.60
2023-02-04T05:43:43.705Z,91.79
2023-02-04T05:44:45.269Z,92.95
2023-02-04T05:45:46.937Z,92.87
2023-02-04T05:46:48.506Z,93.38
2023-02-04T05:47:50.132Z,93.28
2023-02-04T05:48:51.733Z,93.98
2023-02-04T05:49:53.290Z,93.69
2023-02-04T05:50:54.886Z,93.75
2023-02-04T05:51:56.502Z,94.29
2023-02-04T05:52:58.149Z,94.80
2023-02-04T05:53:59.730Z,95.68
2023-02-04T05:55:01.269Z,96.62
2023-02-04T05:56:02.930Z,97.29
2023-02-04T05:57:04.601Z,97.48
2023-02-04T05:58:06.239Z,97.98
2023-02-04T05:59:07.794Z,98.43
2023-02-04T06:00:10.552Z,98.20
2023-02-04T06:01:12.110Z,98.29
2023-02-04T06:02:13.636Z,98.82
2023-02-04T06:03:15.219Z,99.57
2023-02-04T06:04:16.928Z,100.00
2023-02-04T06:05:18.644Z,100.00
2023-02-04T06:06:20.210Z,100.00
2023-02-04T06:07:21.777Z,100.00
2023-02-04T06:08:23.462Z,100.00
2023-02-04T06:09:24.994Z,100.00
2023-02-04T06:10:26.685Z,100.00
2023-02-04T06:11:28.409Z,100.00
2023-02-04T06:12:30.029Z,99.98
2023-02-04T06:13:31.665Z,100.00
2023-02-04T06:14:33.258Z,100.00
2023-02-04T06:15:34.854Z,100.00
2023-02-04T06:16:36.908Z,100.00
2023-02-04T06:17:39.149Z,100.00
2023-02-04T06:18:40.693Z,100.00
2023-02-04T06:19:42.254Z,100.00
2023-02-04T06:20:43.796Z,100.00
2023-02-04T06:21:45.309Z,100.00
2023-02-04T06:22:47.729Z,100.00
2023-02-04T06:23:49.304Z,100.00
2023-02-04T06:24:50.881Z,100.00
2023-02-04T06:25:52.426Z,100.00
2023-02-04T06:26:54.017Z,100.00
2023-02-04T06:27:55.677Z,100.00
2023-02-04T06:28:57.214Z,100.00
2023-02-04T06:29:58.855Z,100.00
2023-02-04T06:31:00.573Z,100.00
2023-02-04T06:32:02.264Z,100.00
2023-02-04T06:33:04.081Z,100.00
2023-02-04T06:34:05.947Z,99.50
2023-02-04T06:35:08.707Z,99.12
2023-02-04T06:36:10.291Z,98.68
2023-02-04T06:37:12.767Z,98.77
2023-02-04T06:38:14.330Z,98.98
2023-02-04T06:39:15.889Z,98.50
2023-02-04T06:40:17.705Z,97.79
2023-02-04T06:41:19.239Z,98.34
2023-02-04T06:42:21.128Z,98.16
2023-02-04T06:43:24.067Z,99.04
2023-02-04T06:44:25.634Z,98.81
2023-02-04T06:45:27.170Z,97.69
2023-02-04T06:46:28.754Z,97.14
2023-02-04T06:47:30.598Z,96.90
2023-02-04T06:48:32.200Z,98.38
2023-02-04T06:49:33.759Z,97.46
2023-02-04T06:50:35.386Z,97.09
2023-02-04T06:51:36.911Z,96.89
2023-02-04T06:52:38.438Z,96.58
2023-02-04T06:53:40.632Z,95.94
2023-02-04T06:54:42.287Z,96.64
2023-02-04T06:55:43.909Z,96.24
2023-02-04T06:56:45.451Z,97.14
2023-02-04T06:57:46.954Z,97.13
2023-02-04T06:58:48.534Z,96.21
2023-02-04T06:59:50.048Z,96.31
2023-02-04T07:00:51.595Z,96.69
2023-02-04T07:01:53.399Z,97.98
2023-02-04T07:02:56.777Z,98.41
2023-02-04T07:03:58.566Z,99.37
2023-02-04T07:05:01.265Z,99.73
2023-02-04T07:06:02.804Z,99.64
2023-02-04T07:07:04.530Z,99.65
2023-02-04T07:08:06.195Z,100.00
2023-02-04T07:09:07.751Z,100.00
2023-02-04T07:10:09.907Z,100.00
2023-02-04T07:11:11.432Z,100.00
2023-02-04T07:12:14.368Z,100.00
2023-02-04T07:13:17.481Z,100.00
2023-02-04T07:14:19.047Z,100.00
2023-02-04T07:15:20.675Z,100.00
2023-02-04T07:16:22.238Z,100.00
2023-02-04T07:17:24.141Z,100.00
2023-02-04T07:18:25.999Z,100.00
2023-02-04T07:19:27.553Z,100.00
2023-02-04T07:20:29.099Z,100.00
2023-02-04T07:21:31.949Z,100.00
2023-02-04T07:22:33.550Z,100.00
2023-02-04T07:23:35.114Z,100.00
2023-02-04T07:24:36.650Z,100.00
2023-02-04T07:25:38.975Z,100.00
2023-02-04T07:26:40.782Z,100.00
2023-02-04T07:27:42.321Z,100.00
2023-02-04T07:28:44.573Z,100.00
2023-02-04T07:29:46.178Z,100.00
2023-02-04T07:30:47.843Z,100.00
2023-02-04T07:31:51.698Z,100.00
2023-02-04T07:32:53.374Z,100.00
2023-02-04T07:33:54.901Z,100.00
2023-02-04T07:34:56.442Z,100.00
2023-02-04T07:35:58.030Z,100.00
2023-02-04T07:36:59.712Z,100.00
2023-02-04T07:38:01.367Z,100.00
2023-02-04T07:39:03.065Z,100.00
2023-02-04T07:40:05.263Z,100.00
2023-02-04T07:41:06.836Z,100.00
2023-02-04T07:42:08.562Z,100.00
2023-02-04T07:43:10.102Z,100.00
2023-02-04T07:44:11.626Z,100.00
2023-02-04T07:45:13.173Z,100.00
2023-02-04T07:46:15.116Z,100.00
2023-02-04T07:47:16.695Z,100.00
2023-02-04T07:48:18.282Z,100.00
2023-02-04T07:49:19.832Z,100.00
2023-02-04T07:50:21.391Z,100.00
2023-02-04T07:51:22.931Z,100.00
2023-02-04T07:52:25.016Z,100.00
2023-02-04T07:53:26.609Z,100.00
2023-02-04T07:54:28.166Z,100.00
2023-02-04T07:55:29.949Z,100.00
2023-02-04T07:56:31.567Z,100.00
2023-02-04T07:57:33.211Z,99.36
2023-02-04T07:58:34.728Z,97.87
2023-02-04T07:59:36.270Z,96.41
2023-02-04T08:00:37.819Z,96.08
2023-02-04T08:01:39.402Z,95.21
2023-02-04T08:02:41.990Z,95.52
2023-02-04T08:03:43.799Z,95.01
2023-02-04T08:04:45.372Z,92.82
2023-02-04T08:05:46.979Z,93.74
2023-02-04T08:06:48.525Z,96.10
2023-02-04T08:07:50.029Z,96.29
2023-02-04T08:08:51.550Z,97.24
2023-02-04T08:09:53.194Z,97.04
2023-02-04T08:10:54.736Z,97.40
2023-02-04T08:11:56.396Z,98.17
2023-02-04T08:12:57.951Z,98.08
2023-02-04T08:13:59.549Z,98.55
2023-02-04T08:15:01.503Z,99.54
2023-02-04T08:16:03.809Z,99.72
2023-02-04T08:17:05.436Z,100.00
2023-02-04T08:18:07.117Z,99.94
2023-02-04T08:19:08.627Z,100.00
2023-02-04T08:20:11.417Z,100.00
2023-02-04T08:21:13.045Z,100.00
2023-02-04T08:22:14.625Z,100.00
2023-02-04T08:23:16.290Z,100.00
2023-02-04T08:24:18.038Z,100.00
2023-02-04T08:25:19.692Z,100.00
2023-02-04T08:26:21.726Z,100.00
2023-02-04T08:27:23.294Z,100.00
2023-02-04T08:28:24.920Z,100.00
2023-02-04T08:29:26.471Z,100.00
2023-02-04T08:30:28.029Z,100.00
2023-02-04T08:31:29.709Z,100.00
2023-02-04T08:32:31.454Z,100.00
2023-02-04T08:33:33.339Z,100.00
2023-02-04T08:34:34.854Z,100.00
2023-02-04T08:35:36.402Z,100.00
2023-02-04T08:36:39.903Z,100.00
2023-02-04T08:37:41.529Z,100.00
2023-02-04T08:38:44.611Z,100.00
2023-02-04T08:39:47.390Z,100.00
2023-02-04T08:40:48.940Z,100.00
2023-02-04T08:41:51.399Z,100.00
2023-02-04T08:42:52.953Z,100.00
2023-02-04T08:43:54.514Z,100.00
2023-02-04T08:44:56.113Z,100.00
2023-02-04T08:45:57.823Z,100.00
2023-02-04T08:46:59.435Z,100.00
2023-02-04T08:48:01.040Z,100.00
2023-02-04T08:49:02.642Z,100.00
2023-02-04T08:50:04.208Z,100.00
2023-02-04T08:51:05.997Z,100.00
2023-02-04T08:52:08.090Z,100.00
2023-02-04T08:53:09.698Z,100.00
2023-02-04T08:54:11.252Z,100.00
2023-02-04T08:55:12.809Z,100.00
2023-02-04T08:56:17.919Z,100.00
2023-02-04T08:57:19.519Z,100.00
2023-02-04T08:58:21.053Z,100.00
2023-02-04T08:59:24.208Z,100.00
2023-02-04T09:00:25.847Z,99.58
2023-02-04T09:01:27.431Z,98.79
2023-02-04T09:02:29.006Z,98.63
2023-02-04T09:03:30.707Z,97.74
2023-02-04T09:04:32.423Z,97.73
2023-02-04T09:05:34.037Z,97.43
2023-02-04T09:06:35.620Z,98.62
2023-02-04T09:07:37.177Z,99.03
2023-02-04T09:08:38.760Z,99.94
2023-02-04T09:09:40.322Z,99.40
2023-02-04T09:10:42.030Z,98.26
2023-02-04T09:11:43.983Z,97.98
2023-02-04T09:12:45.796Z,98.26
2023-02-04T09:13:47.360Z,98.74
2023-02-04T09:14:49.000Z,98.17
2023-02-04T09:15:53.513Z,98.53
2023-02-04T09:16:55.778Z,98.52
2023-02-04T09:18:04.708Z,99.49
2023-02-04T09:19:09.079Z,99.30
2023-02-04T09:20:11.153Z,98.59
2023-02-04T09:21:12.673Z,98.27
2023-02-04T09:22:15.323Z,97.64
2023-02-04T09:23:17.204Z,97.88
2023-02-04T09:24:18.852Z,97.14
2023-02-04T09:25:20.391Z,96.99
2023-02-04T09:26:22.445Z,97.20
2023-02-04T09:27:24.029Z,97.73
2023-02-04T09:28:25.661Z,96.64
2023-02-04T09:29:27.168Z,100.00
2023-02-04T09:30:28.723Z,100.00
2023-02-04T09:31:30.438Z,100.00
2023-02-04T09:32:32.177Z,100.00
2023-02-04T09:33:34.527Z,100.00
2023-02-04T09:34:36.090Z,99.96
2023-02-04T09:35:37.840Z,99.79
2023-02-04T09:36:39.413Z,99.92
2023-02-04T09:37:40.983Z,98.71
2023-02-04T09:38:42.666Z,98.52
2023-02-04T09:39:44.230Z,97.35
2023-02-04T09:40:50.488Z,96.95
2023-02-04T09:41:54.325Z,96.17
2023-02-04T09:42:56.576Z,96.04
2023-02-04T09:43:59.463Z,95.97
2023-02-04T09:45:03.247Z,96.40
2023-02-04T09:46:05.579Z,97.30
2023-02-04T09:47:11.002Z,97.16
2023-02-04T09:48:14.645Z,95.80
2023-02-04T09:49:16.988Z,95.02
2023-02-04T09:50:22.644Z,97.24
2023-02-04T09:51:27.919Z,98.03
2023-02-04T09:52:29.479Z,98.13
2023-02-04T09:53:32.332Z,98.19
2023-02-04T09:54:34.071Z,97.80
2023-02-04T09:55:39.259Z,97.45
2023-02-04T09:56:41.156Z,97.11
2023-02-04T09:57:43.089Z,98.27
2023-02-04T09:58:44.715Z,97.33
2023-02-04T09:59:47.117Z,97.46
2023-02-04T10:00:58.194Z,96.68
2023-02-04T10:02:01.900Z,95.75
2023-02-04T10:03:03.685Z,95.90
2023-02-04T10:04:06.306Z,95.26
2023-02-04T10:05:14.852Z,96.78
2023-02-04T10:06:19.126Z,96.12
2023-02-04T10:07:25.147Z,96.25
2023-02-04T10:08:30.568Z,95.95
2023-02-04T10:09:32.170Z,96.42
2023-02-04T10:10:34.275Z,95.87
2023-02-04T10:11:38.701Z,96.40
2023-02-04T10:12:40.304Z,96.86
2023-02-04T10:13:45.738Z,96.48
2023-02-04T10:14:47.710Z,95.88
2023-02-04T10:15:50.871Z,95.84
2023-02-04T10:16:59.338Z,97.00
2023-02-04T10:18:08.085Z,97.34
2023-02-04T10:19:14.848Z,97.19
2023-02-04T10:20:19.190Z,96.30
2023-02-04T10:21:29.412Z,96.78
2023-02-04T10:22:30.955Z,97.42
2023-02-04T10:23:32.690Z,96.82
2023-02-04T10:24:35.682Z,96.86
2023-02-04T10:25:37.594Z,96.83
2023-02-04T10:26:39.193Z,96.82
2023-02-04T10:27:57.269Z,97.22
2023-02-04T10:29:04.219Z,97.44
2023-02-04T10:30:06.174Z,97.93
2023-02-04T10:31:29.306Z,99.63
2023-02-04T10:32:33.377Z,98.69
2023-02-04T10:33:37.128Z,97.48
2023-02-04T10:34:39.994Z,97.43
2023-02-04T10:35:51.954Z,97.54
2023-02-04T10:36:57.880Z,97.04
2023-02-04T10:38:05.962Z,96.46
2023-02-04T10:39:14.978Z,96.06
2023-02-04T10:40:42.963Z,96.30
2023-02-04T10:41:48.880Z,95.73
2023-02-04T10:42:52.616Z,95.97
2023-02-04T10:44:05.464Z,95.86
2023-02-04T10:45:21.283Z,96.04
2023-02-04T10:46:22.886Z,96.09
2023-02-04T10:47:31.032Z,97.49
2023-02-04T10:48:43.064Z,98.10
2023-02-04T10:50:07.563Z,98.58
2023-02-04T10:51:13.250Z,97.88
2023-02-04T10:52:17.961Z,97.35
2023-02-04T10:53:40.228Z,97.17
2023-02-04T10:54:42.293Z,97.68
2023-02-04T10:55:48.940Z,96.54
2023-02-04T10:56:50.518Z,97.05
2023-02-04T10:57:53.683Z,96.61
2023-02-04T10:58:55.243Z,96.75
2023-02-04T11:00:00.259Z,96.65
2023-02-04T11:01:02.169Z,98.35
2023-02-04T11:02:24.506Z,98.71
2023-02-04T11:03:28.212Z,99.91
2023-02-04T11:04:29.952Z,99.21
2023-02-04T11:05:33.776Z,99.53
2023-02-04T11:06:35.352Z,100.00
2023-02-04T11:07:36.863Z,100.00
2023-02-04T11:08:39.877Z,100.00
2023-02-04T11:09:42.478Z,99.18
2023-02-04T11:10:44.113Z,100.00
2023-02-04T11:11:50.658Z,100.00
2023-02-04T11:12:55.215Z,100.00
2023-02-04T11:13:56.731Z,100.00
2023-02-04T11:14:58.716Z,98.73
2023-02-04T11:16:18.669Z,100.00
2023-02-04T11:17:21.290Z,100.00
2023-02-04T11:18:22.830Z,100.00
2023-02-04T11:19:37.193Z,100.00
2023-02-04T11:20:40.834Z,100.00
2023-02-04T11:21:45.737Z,100.00
2023-02-04T11:22:53.812Z,100.00
2023-02-04T11:24:16.421Z,100.00
2023-02-04T11:25:39.596Z,99.87
2023-02-04T11:26:51.288Z,100.00
2023-02-04T11:27:53.163Z,100.00
2023-02-04T11:29:00.744Z,100.00
2023-02-04T11:30:08.073Z,99.12
2023-02-04T11:31:16.873Z,98.93
2023-02-04T11:32:38.523Z,96.67
2023-02-04T11:33:42.200Z,95.49
2023-02-04T11:34:46.849Z,93.41
2023-02-04T11:36:02.782Z,93.31
2023-02-04T11:37:13.999Z,92.30
2023-02-04T11:38:30.895Z,92.16
2023-02-04T11:39:37.119Z,91.21
2023-02-04T11:40:40.182Z,90.80
2023-02-04T11:41:46.252Z,90.29
2023-02-04T11:42:48.354Z,90.51
2023-02-04T11:43:53.233Z,91.39
2023-02-04T11:45:08.934Z,92.26
2023-02-04T11:46:16.746Z,92.57
2023-02-04T11:47:18.422Z,93.18
2023-02-04T11:48:21.358Z,93.84
2023-02-04T11:49:25.020Z,94.34
2023-02-04T11:50:33.399Z,94.41
2023-02-04T11:51:35.252Z,93.50
2023-02-04T11:52:36.851Z,95.28
2023-02-04T11:53:38.453Z,95.23
2023-02-04T11:54:40.330Z,96.26
2023-02-04T11:55:47.645Z,96.54
2023-02-04T11:56:52.881Z,97.34
2023-02-04T11:57:55.796Z,97.09
2023-02-04T11:58:58.529Z,97.64
2023-02-04T12:00:00.287Z,96.62
2023-02-04T12:01:01.858Z,96.24
2023-02-04T12:02:26.144Z,97.22
2023-02-04T12:03:36.003Z,94.05
2023-02-04T12:04:37.584Z,92.24
2023-02-04T12:05:44.445Z,92.27
2023-02-04T12:06:57.931Z,90.91
2023-02-04T12:08:11.850Z,90.03
2023-02-04T12:09:16.402Z,90.14
2023-02-04T12:10:17.923Z,90.42
2023-02-04T12:11:33.351Z,91.15
2023-02-04T12:12:44.358Z,93.16
2023-02-04T12:13:51.008Z,92.57
2023-02-04T12:15:02.663Z,93.14
2023-02-04T12:16:06.702Z,92.82
2023-02-04T12:17:19.603Z,90.91
2023-02-04T12:18:21.318Z,91.13
2023-02-04T12:19:27.309Z,90.08
2023-02-04T12:20:29.332Z,90.75
2023-02-04T12:21:30.861Z,90.34
2023-02-04T12:22:32.418Z,91.32
2023-02-04T12:23:33.985Z,92.75
2023-02-04T12:24:35.690Z,93.09
2023-02-04T12:25:37.213Z,90.40
2023-02-04T12:26:38.860Z,91.32
2023-02-04T12:27:40.400Z,92.61
2023-02-04T12:28:41.917Z,96.71
2023-02-04T12:29:43.536Z,99.51
2023-02-04T12:30:45.387Z,95.62
2023-02-04T12:31:47.030Z,91.63
2023-02-04T12:32:48.675Z,92.97
2023-02-04T12:33:50.197Z,92.97
2023-02-04T12:34:51.759Z,92.88
2023-02-04T12:35:53.556Z,93.26
2023-02-04T12:36:55.115Z,94.31
2023-02-04T12:37:56.746Z,94.63
2023-02-04T12:39:00.838Z,93.40
2023-02-04T12:40:02.405Z,94.58
2023-02-04T12:41:04.112Z,94.68
2023-02-04T12:42:05.714Z,93.59
2023-02-04T12:43:07.532Z,92.10
2023-02-04T12:44:09.164Z,92.57
2023-02-04T12:45:15.569Z,92.54
2023-02-04T12:46:17.986Z,90.30
2023-02-04T12:47:19.618Z,89.76
2023-02-04T12:48:21.268Z,88.24
2023-02-04T12:49:24.372Z,88.53
2023-02-04T12:50:26.834Z,88.78
2023-02-04T12:51:28.380Z,89.93
2023-02-04T12:52:29.969Z,91.02
2023-02-04T12:53:31.520Z,89.95
2023-02-04T12:54:33.186Z,90.48
2023-02-04T12:55:35.289Z,89.77
2023-02-04T12:56:37.007Z,90.66
2023-02-04T12:57:38.558Z,90.87
2023-02-04T12:58:40.240Z,90.67
2023-02-04T12:59:41.810Z,90.13
2023-02-04T13:00:43.427Z,89.71
2023-02-04T13:01:45.045Z,91.31
2023-02-04T13:02:47.664Z,91.32
2023-02-04T13:03:49.227Z,90.24
2023-02-04T13:04:50.956Z,91.57
2023-02-04T13:05:52.593Z,92.84
2023-02-04T13:06:54.219Z,94.11
2023-02-04T13:07:55.854Z,95.31
2023-02-04T13:08:57.380Z,94.32
2023-02-04T13:09:59.640Z,95.26
2023-02-04T13:11:01.253Z,96.60
2023-02-04T13:12:03.415Z,95.89
2023-02-04T13:13:04.989Z,96.30
2023-02-04T13:14:06.558Z,95.79
2023-02-04T13:15:08.861Z,92.78
2023-02-04T13:16:10.487Z,93.18
2023-02-04T13:17:12.288Z,94.44
2023-02-04T13:18:15.610Z,93.62
2023-02-04T13:19:18.175Z,93.74
2023-02-04T13:20:19.961Z,93.87
2023-02-04T13:21:21.576Z,94.64
2023-02-04T13:22:23.170Z,95.15
2023-02-04T13:23:24.703Z,97.72
2023-02-04T13:24:26.746Z,96.77